Downpatrick, United Kingdom
Current Conditions -  °F | °C
As of 4:20 PM on Wednesday 22 Oct 2014 (Local Time) from EGAC Reporting Station
Few Clouds Few Clouds  
Wind Chill: 55°   Ceiling: Unl
Heat Index: 55°   Visibility: 6mi
Dew Point: 48°   Wind: 22mph
Humidity: 77%   Direction: 240°WSW
Pressure: 30.03"   Gusts: 35mph
Location:  54.33°N, 5.7°W
Report Text: EGAC 221520Z 24019G30KT 9999 FEW028 13/09 Q1017
Loading
Personal Weather Stations






























Interactive Weather Map
Tropical Storm Tracking
New forecast layout! Learn more

10-Day Weather Forecast

Advertisements
Track Severe Weather on mobile